• Join FlightAware (Why Join?)
  • Login
  • US Flag 
06:54PM EDT


 

Airport Tracker/Info


-or-


 

Live Flight TrackerFlight Track Log ✈ EJA727 ✈ 25-Jun-2013 ✈ KPDK - KTYS

Flight Track Log - Related Links

Times and Time Zones

All times are in EDT time to prevent confusion due to time zone crossing. See the EJA727 flight status page for this flight to view local times or setup timezone preferences in your user account.

Time Position Orientation Groundspeed Altitude Reporting Facility
EDT Latitude Longitude Course Direction KTS MPH feet Rate Location/Type
04:11PM 33.8333 -84.3667 248° West 221 254 3,800  Level Atlanta TRACON
04:12PM 33.9000 -84.3667 360° North 231 266 6,900 2,340 Climbing Atlanta TRACON
04:13PM 33.9667 -84.3500 12° North 248 285 8,500 2,040 Climbing Atlanta TRACON
04:14PM 34.0500 -84.3333 North 310 357 11,000 900 Climbing Atlanta TRACON
04:16PM 34.2275 -84.2931 12° North  Level FlightAware Approximate
04:16PM 34.2072 -84.3075 North 367 422 11,000  Level Atlanta Center
04:17PM 34.3033 -84.2978 North 347 399 11,000 -60 Level Atlanta Center
04:18PM 34.3994 -84.2753 11° North 347 399 10,900 -60 Descending Atlanta Center
04:19PM 34.5036 -84.2506 11° North 347 399 10,900  Level Atlanta Center
04:20PM 34.6039 -84.2533 359° North 352 405 10,900  Level Atlanta Center
04:21PM 34.6997 -84.2839 345° North 352 405 10,900  Level Atlanta Center
04:22PM 34.7978 -84.3144 346° North 359 413 10,900  Level Atlanta Center
04:23PM 34.8894 -84.3453 345° North 354 407 10,900  Level Atlanta Center
04:24PM 34.9814 -84.3783 344° North 354 407 10,900  Level Atlanta Center
04:25PM 35.0750 -84.4119 344° North 349 402 10,900  Level Atlanta Center
04:26PM 35.1731 -84.4428 346° North 349 402 10,900  Level Atlanta Center
04:27PM 35.2628 -84.4764 343° North 349 402 11,000  Climbing Atlanta Center
04:28PM 35.3544 -84.5072 345° North 343 395 11,000  Level Atlanta Center
04:29PM 35.4461 -84.5053 North 327 376 11,000 -600 Level Atlanta Center
04:30PM 35.5069 -84.4267 46° Northeast 287 330 9,900 -1,140 Descending Atlanta Center
04:31PM 35.5531 -84.3475 54° Northeast 282 325 8,800 -1,320 Descending Atlanta Center
04:32PM 35.5969 -84.2636 57° Northeast 276 318 7,300 -900 Descending Atlanta Center
04:33PM 35.6431 -84.1819 55° Northeast 281 323 7,100 -120 Descending Atlanta Center
04:34PM 35.6892 -84.1000 55° Northeast 286 329 7,100  Level Atlanta Center
04:35PM 35.7328 -84.0183 57° Northeast 286 329 7,100  Level Atlanta Center
04:37PM 35.8000 -83.9833 51° Northeast  Level FlightAware Approximate
04:44PM 35.8110 -83.9940 51° Northeast  Level Estimated
04:45PM 35.8110 -83.9940 51° Northeast  Level Estimated
04:46PM 35.8110 -83.9940 51° Northeast  Level Estimated
04:47PM 35.8110 -83.9940 51° Northeast  Level Estimated